Terminal Aerodrome Forecast
Issued by NWS

Home | Current Version | Previous Version | Graphics & Text | Print | Product List | Glossary On
Versions: 1 2 3 4 5 6 7 8 9 10 11 12 13 14 15 16 17 18 19
000
FTUS42 KMHX 171138
TAFPGV
TAF
KPGV 171138Z 1712/1812 VRB03KT 5SM BR SCT003
     FM171300 VRB04KT P6SM SCT080
     FM172000 17008KT P6SM VCSH BKN035
     FM180000 VRB04KT P6SM SCT035 BKN150
     FM180900 17005KT 5SM BR BKN060
      AMD LTD TO CLD VIS AND WIND=

USA.gov is the U.S. government's official web portal to all federal, state and local government web resources and services.